createdAt,value
2022-09-15T00:00:19.467Z,19.36
2022-09-15T00:03:07.365Z,19.35
2022-09-15T00:05:55.478Z,19.45
2022-09-15T00:08:43.584Z,19.44
2022-09-15T00:11:33.582Z,19.38
2022-09-15T00:14:21.533Z,19.49
2022-09-15T00:17:09.138Z,19.55
2022-09-15T00:19:57.072Z,19.39
2022-09-15T00:22:44.622Z,19.33
2022-09-15T00:25:32.434Z,19.33
2022-09-15T00:28:21.533Z,19.38
2022-09-15T00:31:12.165Z,19.29
2022-09-15T00:34:01.086Z,19.45
2022-09-15T00:36:48.997Z,19.44
2022-09-15T00:39:36.566Z,19.30
2022-09-15T00:42:24.397Z,19.35
2022-09-15T00:45:16.542Z,19.27
2022-09-15T00:48:05.585Z,19.13
2022-09-15T00:50:55.814Z,19.13
2022-09-15T00:53:44.455Z,19.08
2022-09-15T00:56:33.980Z,19.14
2022-09-15T00:59:24.104Z,19.16
2022-09-15T01:02:25.224Z,19.14
2022-09-15T01:05:15.908Z,19.13
2022-09-15T01:08:07.263Z,19.12
2022-09-15T01:10:55.474Z,19.14
2022-09-15T01:13:44.128Z,19.02
2022-09-15T01:17:02.726Z,19.11
2022-09-15T01:19:57.902Z,19.01
2022-09-15T01:23:04.186Z,19.05
2022-09-15T01:26:13.737Z,19.11
2022-09-15T01:29:38.136Z,19.05
2022-09-15T01:32:36.900Z,18.95
2022-09-15T01:35:31.711Z,19.24
2022-09-15T01:38:21.894Z,19.12
2022-09-15T01:41:12.260Z,19.16
2022-09-15T01:44:13.629Z,19.04
2022-09-15T01:47:08.311Z,18.94
2022-09-15T01:50:01.091Z,19.19
2022-09-15T01:52:50.211Z,19.24
2022-09-15T01:55:43.379Z,19.01
2022-09-15T01:58:32.346Z,18.96
2022-09-15T02:01:34.650Z,19.04
2022-09-15T02:04:22.455Z,19.02
2022-09-15T02:07:16.019Z,19.13
2022-09-15T02:10:09.996Z,19.02
2022-09-15T02:13:17.203Z,19.12
2022-09-15T02:16:08.960Z,18.98
2022-09-15T02:19:12.002Z,19.14
2022-09-15T02:22:18.095Z,19.22
2022-09-15T02:25:11.846Z,19.08
2022-09-15T02:28:03.808Z,19.04
2022-09-15T02:30:54.265Z,19.50
2022-09-15T02:33:43.336Z,19.14
2022-09-15T02:36:31.333Z,19.06
2022-09-15T02:39:22.417Z,19.06
2022-09-15T02:42:09.804Z,19.48
2022-09-15T02:44:58.282Z,19.45
2022-09-15T02:47:46.097Z,19.35
2022-09-15T02:50:33.962Z,19.35
2022-09-15T02:53:21.452Z,19.47
2022-09-15T02:56:09.286Z,19.29
2022-09-15T02:58:56.814Z,19.25
2022-09-15T03:01:44.773Z,19.31
2022-09-15T03:04:32.496Z,19.40
2022-09-15T03:07:20.421Z,19.51
2022-09-15T03:10:09.584Z,19.44
2022-09-15T03:12:57.437Z,19.50
2022-09-15T03:15:44.963Z,19.63
2022-09-15T03:18:32.884Z,19.54
2022-09-15T03:21:21.028Z,19.39
2022-09-15T03:24:08.959Z,19.41
2022-09-15T03:26:56.444Z,19.35
2022-09-15T03:29:44.447Z,19.37
2022-09-15T03:32:31.952Z,19.44
2022-09-15T03:35:19.751Z,19.38
2022-09-15T03:38:07.275Z,19.52
2022-09-15T03:41:03.403Z,19.50
2022-09-15T03:43:50.986Z,19.46
2022-09-15T03:46:38.765Z,19.32
2022-09-15T03:49:26.262Z,19.43
2022-09-15T03:52:14.073Z,19.40
2022-09-15T03:55:01.568Z,19.51
2022-09-15T03:57:49.373Z,19.33
2022-09-15T04:00:36.927Z,19.23
2022-09-15T04:03:24.805Z,19.39
2022-09-15T04:06:12.627Z,19.27
2022-09-15T04:09:00.401Z,19.00
2022-09-15T04:11:47.922Z,18.83
2022-09-15T04:14:35.710Z,18.85
2022-09-15T04:17:23.173Z,18.78
2022-09-15T04:20:12.031Z,18.73
2022-09-15T04:22:59.516Z,18.73
2022-09-15T04:26:01.617Z,18.76
2022-09-15T04:28:49.179Z,18.85
2022-09-15T04:31:37.157Z,18.97
2022-09-15T04:34:24.806Z,19.01
2022-09-15T04:37:12.685Z,18.85
2022-09-15T04:40:00.420Z,18.93
2022-09-15T04:42:48.219Z,18.81
2022-09-15T04:45:35.706Z,18.85
2022-09-15T04:48:24.076Z,18.72
2022-09-15T04:51:14.329Z,18.77
2022-09-15T04:54:02.114Z,18.89
2022-09-15T04:56:49.623Z,18.98
2022-09-15T04:59:37.506Z,18.89
2022-09-15T05:02:25.105Z,19.10
2022-09-15T05:05:12.941Z,18.88
2022-09-15T05:08:00.443Z,18.91
2022-09-15T05:10:48.239Z,18.88
2022-09-15T05:13:36.448Z,18.83
2022-09-15T05:16:27.273Z,18.87
2022-09-15T05:19:14.849Z,18.93
2022-09-15T05:22:02.677Z,19.19
2022-09-15T05:24:50.192Z,19.25
2022-09-15T05:27:37.998Z,19.32
2022-09-15T05:30:37.749Z,19.62
2022-09-15T05:33:26.637Z,19.28
2022-09-15T05:36:14.740Z,19.19
2022-09-15T05:39:02.595Z,19.40
2022-09-15T05:41:50.097Z,19.33
2022-09-15T05:44:37.918Z,19.26
2022-09-15T05:47:25.398Z,19.33
2022-09-15T05:50:13.232Z,19.32
2022-09-15T05:53:00.714Z,19.26
2022-09-15T05:55:48.534Z,19.35
2022-09-15T05:58:36.039Z,19.36
2022-09-15T06:01:26.919Z,19.41
2022-09-15T06:04:14.732Z,19.77
2022-09-15T06:07:02.368Z,19.85
2022-09-15T06:09:50.165Z,19.58
2022-09-15T06:12:37.700Z,19.58
2022-09-15T06:15:25.845Z,19.74
2022-09-15T06:18:13.344Z,20.15
2022-09-15T06:21:06.095Z,20.24
2022-09-15T06:24:04.572Z,20.42
2022-09-15T06:26:52.427Z,20.31
2022-09-15T06:29:39.889Z,20.27
2022-09-15T06:32:28.192Z,20.42
2022-09-15T06:35:15.897Z,20.22
2022-09-15T06:38:03.688Z,20.16
2022-09-15T06:40:57.929Z,20.27
2022-09-15T06:43:46.656Z,20.21
2022-09-15T06:46:36.332Z,20.07
2022-09-15T06:49:24.489Z,20.11
2022-09-15T06:52:12.019Z,20.14
2022-09-15T06:54:59.794Z,20.20
2022-09-15T06:57:47.268Z,20.42
2022-09-15T07:00:35.041Z,20.72
2022-09-15T07:03:22.649Z,20.64
2022-09-15T07:06:11.067Z,20.54
2022-09-15T07:08:59.079Z,20.95
2022-09-15T07:11:46.872Z,20.75
2022-09-15T07:14:34.347Z,20.93
2022-09-15T07:17:22.116Z,21.07
2022-09-15T07:20:09.826Z,21.27
2022-09-15T07:22:57.608Z,21.14
2022-09-15T07:25:45.438Z,20.97
2022-09-15T07:28:33.639Z,21.41
2022-09-15T07:31:22.709Z,21.59
2022-09-15T07:34:10.504Z,21.38
2022-09-15T07:36:57.991Z,21.28
2022-09-15T07:39:45.843Z,21.02
2022-09-15T07:42:35.423Z,21.37
2022-09-15T07:45:23.521Z,21.56
2022-09-15T07:48:11.062Z,21.56
2022-09-15T07:50:58.848Z,21.52
2022-09-15T07:53:47.847Z,21.64
2022-09-15T07:56:35.647Z,21.87
2022-09-15T07:59:23.139Z,22.04
2022-09-15T08:02:16.753Z,22.05
2022-09-15T08:05:04.807Z,22.13
2022-09-15T08:07:52.295Z,22.27
2022-09-15T08:10:40.374Z,22.34
2022-09-15T08:13:29.044Z,22.32
2022-09-15T08:16:19.862Z,22.17
2022-09-15T08:19:07.214Z,22.27
2022-09-15T08:21:54.889Z,22.61
2022-09-15T08:24:42.387Z,22.63
2022-09-15T08:27:30.167Z,22.76
2022-09-15T08:30:17.646Z,22.87
2022-09-15T08:33:05.407Z,22.84
2022-09-15T08:35:53.410Z,22.85
2022-09-15T08:38:42.946Z,22.93
2022-09-15T08:41:34.319Z,22.84
2022-09-15T08:44:43.391Z,22.94
2022-09-15T08:47:43.330Z,23.22
2022-09-15T08:50:39.319Z,23.45
2022-09-15T08:53:34.255Z,23.52
2022-09-15T08:56:22.040Z,23.61
2022-09-15T08:59:13.952Z,23.82
2022-09-15T09:02:38.322Z,23.87
2022-09-15T09:05:41.006Z,24.15
2022-09-15T09:08:34.520Z,24.46
2022-09-15T09:11:59.500Z,24.15
2022-09-15T09:15:08.535Z,24.21
2022-09-15T09:18:10.918Z,24.43
2022-09-15T09:21:13.491Z,24.37
2022-09-15T09:24:28.590Z,24.72
2022-09-15T09:27:19.123Z,24.76
2022-09-15T09:30:21.126Z,24.91
2022-09-15T09:33:24.127Z,24.90
2022-09-15T09:36:12.108Z,25.02
2022-09-15T09:39:02.068Z,25.04
2022-09-15T09:41:49.728Z,24.99
2022-09-15T09:44:37.564Z,25.19
2022-09-15T09:47:27.508Z,25.36
2022-09-15T09:50:36.635Z,25.73
2022-09-15T09:53:32.178Z,25.71
2022-09-15T09:56:25.115Z,26.04
2022-09-15T09:59:40.652Z,26.30
2022-09-15T10:02:28.936Z,26.78
2022-09-15T10:05:18.921Z,26.55
2022-09-15T10:08:06.572Z,26.62
2022-09-15T10:10:57.085Z,26.86
2022-09-15T10:13:54.348Z,27.08
2022-09-15T10:16:42.179Z,26.96
2022-09-15T10:19:31.995Z,26.74
2022-09-15T10:22:28.433Z,26.94
2022-09-15T10:25:21.929Z,26.51
2022-09-15T10:28:17.125Z,26.46
2022-09-15T10:31:10.213Z,26.53
2022-09-15T10:33:58.065Z,26.41
2022-09-15T10:36:45.999Z,26.42
2022-09-15T10:39:49.878Z,26.43
2022-09-15T10:42:50.976Z,26.24
2022-09-15T10:45:39.917Z,26.55
2022-09-15T10:48:38.049Z,26.45
2022-09-15T10:51:53.080Z,26.78
2022-09-15T10:55:51.567Z,26.66
2022-09-15T10:58:48.605Z,26.84
2022-09-15T11:02:13.403Z,26.71
2022-09-15T11:05:28.933Z,26.74
2022-09-15T11:08:31.669Z,26.39
2022-09-15T11:11:54.878Z,26.45
2022-09-15T11:15:14.671Z,26.35
2022-09-15T11:18:25.360Z,26.06
2022-09-15T11:21:16.728Z,26.28
2022-09-15T11:24:25.528Z,26.17
2022-09-15T11:27:16.531Z,25.91
2022-09-15T11:30:22.264Z,25.97
2022-09-15T11:33:41.970Z,25.93
2022-09-15T11:36:47.400Z,25.82
2022-09-15T11:39:56.769Z,25.87
2022-09-15T11:43:06.243Z,25.59
2022-09-15T11:45:56.522Z,25.44
2022-09-15T11:48:50.241Z,25.37
2022-09-15T11:51:46.401Z,25.35
2022-09-15T11:54:42.862Z,24.89
2022-09-15T11:57:41.663Z,24.47
2022-09-15T12:00:29.512Z,24.30
2022-09-15T12:03:21.944Z,24.42
2022-09-15T12:06:14.382Z,24.40
2022-09-15T12:09:04.467Z,24.11
2022-09-15T12:11:55.411Z,23.77
2022-09-15T12:14:48.219Z,23.92
2022-09-15T12:17:43.574Z,24.16
2022-09-15T12:20:39.439Z,24.01
2022-09-15T12:23:32.080Z,24.16
2022-09-15T12:26:22.103Z,23.70
2022-09-15T12:29:21.667Z,23.72
2022-09-15T12:32:20.489Z,23.70
2022-09-15T12:35:16.957Z,23.74
2022-09-15T12:38:04.784Z,23.90
2022-09-15T12:40:59.037Z,24.27
2022-09-15T12:43:55.079Z,24.26
2022-09-15T12:46:51.318Z,23.99
2022-09-15T12:49:43.961Z,24.03
2022-09-15T12:53:00.880Z,24.39
2022-09-15T12:55:51.769Z,24.48
2022-09-15T12:58:45.052Z,24.73
2022-09-15T13:01:46.450Z,24.64
2022-09-15T13:04:43.052Z,24.78
2022-09-15T13:07:35.696Z,24.64
2022-09-15T13:10:43.186Z,24.54
2022-09-15T13:14:01.711Z,24.33
2022-09-15T13:16:54.669Z,23.96
2022-09-15T13:19:44.875Z,24.09
2022-09-15T13:22:34.673Z,23.99
2022-09-15T13:25:25.011Z,23.89
2022-09-15T13:28:12.502Z,23.73
2022-09-15T13:31:29.973Z,23.66
2022-09-15T13:35:04.386Z,22.05
2022-09-15T13:38:21.853Z,21.04
2022-09-15T13:41:32.427Z,20.77
2022-09-15T13:44:43.586Z,20.47
2022-09-15T13:47:52.599Z,20.46
2022-09-15T13:50:43.930Z,20.34
2022-09-15T13:53:42.971Z,20.32
2022-09-15T13:56:38.981Z,20.41
2022-09-15T13:59:31.306Z,20.58
2022-09-15T14:02:21.072Z,20.65
2022-09-15T14:05:08.546Z,20.87
2022-09-15T14:08:07.931Z,21.01
2022-09-15T14:10:57.140Z,21.00
2022-09-15T14:13:48.001Z,20.93
2022-09-15T14:16:39.054Z,20.86
2022-09-15T14:19:35.984Z,20.76
2022-09-15T14:22:34.429Z,21.06
2022-09-15T14:25:21.101Z,20.73
2022-09-15T14:28:07.095Z,20.46
2022-09-15T14:30:52.921Z,20.54
2022-09-15T14:33:40.258Z,20.47
2022-09-15T14:36:33.692Z,20.24
2022-09-15T14:39:21.965Z,20.14
2022-09-15T14:42:21.147Z,19.89
2022-09-15T14:48:17.370Z,19.46
2022-09-15T14:51:10.886Z,19.48
2022-09-15T14:54:00.121Z,19.37
2022-09-15T14:56:46.705Z,19.51
2022-09-15T15:00:01.043Z,19.55
2022-09-15T15:02:52.500Z,19.75
2022-09-15T15:05:48.770Z,19.86
2022-09-15T15:08:49.557Z,19.69
2022-09-15T15:11:39.149Z,19.57
2022-09-15T15:14:27.127Z,19.67
2022-09-15T15:17:26.939Z,19.57
2022-09-15T15:20:20.224Z,19.71
2022-09-15T15:23:24.097Z,19.51
2022-09-15T15:26:34.576Z,19.26
2022-09-15T15:29:37.028Z,18.88
2022-09-15T15:32:25.118Z,18.66
2022-09-15T15:35:16.973Z,18.76
2022-09-15T15:38:14.924Z,18.55
2022-09-15T15:41:05.017Z,18.57
2022-09-15T15:44:04.845Z,18.59
2022-09-15T15:47:01.358Z,18.44
2022-09-15T15:50:12.408Z,18.18
2022-09-15T15:52:59.277Z,18.13
2022-09-15T15:55:47.211Z,18.17
2022-09-15T15:58:34.758Z,18.26
2022-09-15T16:01:22.705Z,18.33
2022-09-15T16:04:11.266Z,18.23
2022-09-15T16:06:58.771Z,18.17
2022-09-15T16:09:47.439Z,18.38
2022-09-15T16:12:35.551Z,18.31
2022-09-15T16:15:23.504Z,18.35
2022-09-15T16:18:11.542Z,18.38
2022-09-15T16:20:59.375Z,18.40
2022-09-15T16:23:47.227Z,18.38
2022-09-15T16:26:34.996Z,18.40
2022-09-15T16:29:22.486Z,18.30
2022-09-15T16:32:21.451Z,18.26
2022-09-15T16:35:29.481Z,18.22
2022-09-15T16:38:20.957Z,18.26
2022-09-15T16:41:19.509Z,18.26
2022-09-15T16:44:16.548Z,18.27
2022-09-15T16:47:04.085Z,18.23
2022-09-15T16:49:51.893Z,18.51
2022-09-15T16:52:40.310Z,18.04
2022-09-15T16:55:31.971Z,17.76
2022-09-15T16:58:20.302Z,17.72
2022-09-15T17:01:16.742Z,17.64
2022-09-15T17:04:09.659Z,17.56
2022-09-15T17:06:57.499Z,17.56
2022-09-15T17:09:45.019Z,17.55
2022-09-15T17:12:32.832Z,17.58
2022-09-15T17:15:02.205Z,17.67
2022-09-15T17:17:29.950Z,17.68
2022-09-15T17:19:57.512Z,17.90
2022-09-15T17:22:24.949Z,18.00
2022-09-15T17:24:52.528Z,17.93
2022-09-15T17:27:19.851Z,17.75
2022-09-15T17:29:47.340Z,17.67
2022-09-15T17:32:15.098Z,17.82
2022-09-15T17:34:42.344Z,18.07
2022-09-15T17:37:09.740Z,17.88
2022-09-15T17:39:37.271Z,18.06
2022-09-15T17:42:04.644Z,18.11
2022-09-15T17:44:34.357Z,18.03
2022-09-15T17:47:04.732Z,18.14
2022-09-15T17:49:31.990Z,18.14
2022-09-15T17:51:59.886Z,18.21
2022-09-15T17:54:27.467Z,18.05
2022-09-15T17:56:54.828Z,18.17
2022-09-15T17:59:22.154Z,18.19
2022-09-15T18:01:49.785Z,18.14
2022-09-15T18:04:20.617Z,18.18
2022-09-15T18:06:47.895Z,18.05
2022-09-15T18:09:30.642Z,18.07
2022-09-15T18:12:05.847Z,18.12
2022-09-15T18:14:39.059Z,18.06
2022-09-15T18:17:06.679Z,18.07
2022-09-15T18:19:33.907Z,17.97
2022-09-15T18:22:01.163Z,17.88
2022-09-15T18:24:28.730Z,18.02
2022-09-15T18:26:56.245Z,17.86
2022-09-15T18:29:23.484Z,18.06
2022-09-15T18:31:51.279Z,17.78
2022-09-15T18:34:18.494Z,17.92
2022-09-15T18:36:45.740Z,17.78
2022-09-15T18:39:13.284Z,17.64
2022-09-15T18:41:40.575Z,17.55
2022-09-15T18:44:08.105Z,17.43
2022-09-15T18:46:35.744Z,17.45
2022-09-15T18:49:03.005Z,17.45
2022-09-15T18:51:50.613Z,17.46
2022-09-15T18:54:18.025Z,17.58
2022-09-15T18:56:45.498Z,17.61
2022-09-15T18:59:17.686Z,17.26
2022-09-15T19:01:46.334Z,17.34
2022-09-15T19:04:13.653Z,17.61
2022-09-15T19:06:40.908Z,17.44
2022-09-15T19:09:08.475Z,17.41
2022-09-15T19:11:35.713Z,17.34
2022-09-15T19:14:02.999Z,17.17
2022-09-15T19:16:53.784Z,17.24
2022-09-15T19:19:17.773Z,17.17
2022-09-15T19:21:45.613Z,17.40
2022-09-15T19:24:12.912Z,17.27
2022-09-15T19:26:40.254Z,17.47
2022-09-15T19:29:08.228Z,17.34
2022-09-15T19:31:39.808Z,17.38
2022-09-15T19:34:09.665Z,17.51
2022-09-15T19:36:39.514Z,17.42
2022-09-15T19:39:07.379Z,17.50
2022-09-15T19:41:35.013Z,17.45
2022-09-15T19:44:05.103Z,17.31
2022-09-15T19:46:32.541Z,17.72
2022-09-15T19:49:02.084Z,17.59
2022-09-15T19:51:29.675Z,17.51
2022-09-15T19:53:57.942Z,17.45
2022-09-15T19:56:27.443Z,17.57
2022-09-15T19:58:56.361Z,17.73
2022-09-15T20:01:28.484Z,17.61
2022-09-15T20:03:57.432Z,17.74
2022-09-15T20:06:28.966Z,17.65
2022-09-15T20:09:03.694Z,17.67
2022-09-15T20:11:31.946Z,17.53
2022-09-15T20:14:04.026Z,17.61
2022-09-15T20:16:31.701Z,17.59
2022-09-15T20:18:59.467Z,17.51
2022-09-15T20:21:49.274Z,17.49
2022-09-15T20:24:20.059Z,17.65
2022-09-15T20:26:47.971Z,17.48
2022-09-15T20:29:15.852Z,17.51
2022-09-15T20:31:43.355Z,17.54
2022-09-15T20:34:10.977Z,17.61
2022-09-15T20:36:39.077Z,17.51
2022-09-15T20:39:09.098Z,17.57
2022-09-15T20:41:36.684Z,17.62
2022-09-15T20:44:04.227Z,17.52
2022-09-15T20:46:31.509Z,17.47
2022-09-15T20:48:59.112Z,17.55
2022-09-15T20:51:30.055Z,17.48
2022-09-15T20:53:58.500Z,17.57
2022-09-15T20:56:28.397Z,17.56
2022-09-15T20:58:57.461Z,17.43
2022-09-15T21:01:26.976Z,17.52
2022-09-15T21:03:55.165Z,17.58
2022-09-15T21:06:25.673Z,17.53
2022-09-15T21:08:53.868Z,17.59
2022-09-15T21:11:22.471Z,17.43
2022-09-15T21:13:50.485Z,17.38
2022-09-15T21:16:20.161Z,17.40
2022-09-15T21:18:48.620Z,17.41
2022-09-15T21:21:23.587Z,17.56
2022-09-15T21:23:55.945Z,17.43
2022-09-15T21:26:28.308Z,17.58
2022-09-15T21:28:56.457Z,17.60
2022-09-15T21:31:29.199Z,17.57
2022-09-15T21:33:57.761Z,17.67
2022-09-15T21:36:27.287Z,17.63
2022-09-15T21:38:56.417Z,17.56
2022-09-15T21:41:26.538Z,17.61
2022-09-15T21:43:54.410Z,17.65
2022-09-15T21:46:23.573Z,17.71
2022-09-15T21:48:51.504Z,17.81
2022-09-15T21:51:24.668Z,17.49
2022-09-15T21:53:54.078Z,17.35
2022-09-15T21:56:22.043Z,17.51
2022-09-15T21:58:49.301Z,17.74
2022-09-15T22:01:19.468Z,17.76
2022-09-15T22:04:00.983Z,17.75
2022-09-15T22:06:30.331Z,17.67
2022-09-15T22:08:59.234Z,17.79
2022-09-15T22:11:27.138Z,17.49
2022-09-15T22:13:58.481Z,17.33
2022-09-15T22:16:26.369Z,17.44
2022-09-15T22:18:53.851Z,17.37
2022-09-15T22:21:28.745Z,17.28
2022-09-15T22:23:57.600Z,17.18
2022-09-15T22:26:27.685Z,17.26
2022-09-15T22:28:55.825Z,17.39
2022-09-15T22:31:24.495Z,17.27
2022-09-15T22:33:52.505Z,17.35
2022-09-15T22:36:28.910Z,17.28
2022-09-15T22:38:58.415Z,17.47
2022-09-15T22:41:25.704Z,17.52
2022-09-15T22:43:53.171Z,17.56
2022-09-15T22:46:21.004Z,17.56
2022-09-15T22:48:48.502Z,17.36
2022-09-15T22:51:16.058Z,17.24
2022-09-15T22:53:43.939Z,17.29
2022-09-15T22:56:16.036Z,17.09
2022-09-15T22:58:44.122Z,17.20
2022-09-15T23:01:33.005Z,17.15
2022-09-15T23:04:02.922Z,17.10
2022-09-15T23:06:34.058Z,17.12
2022-09-15T23:09:05.246Z,17.20
2022-09-15T23:11:32.479Z,17.28
2022-09-15T23:14:00.606Z,17.22
2022-09-15T23:16:29.998Z,17.13
2022-09-15T23:18:57.364Z,17.10
2022-09-15T23:21:25.281Z,17.21
2022-09-15T23:23:54.115Z,17.27
2022-09-15T23:26:26.036Z,17.29
2022-09-15T23:28:54.000Z,17.41
2022-09-15T23:31:21.828Z,17.33
2022-09-15T23:33:49.415Z,17.31
2022-09-15T23:36:17.997Z,17.30
2022-09-15T23:38:45.744Z,17.33
2022-09-15T23:41:14.734Z,17.18
2022-09-15T23:43:42.613Z,17.26
2022-09-15T23:46:10.268Z,17.28
2022-09-15T23:48:38.132Z,17.23
2022-09-15T23:51:06.034Z,17.17
2022-09-15T23:53:34.287Z,17.29
2022-09-15T23:56:02.124Z,17.19
2022-09-15T23:58:29.820Z,17.04
